GOTT

Details ICAO GOTT (TUD)
Name TAMBACOUNDA
Region Senegal
Timezone Africa/Dakar (UTC+0.0)
Plans Departing 8
Arriving 10
Stats Elevation 161 ft / 49 m (AMSL)
Location 13.736816° -13.653121°
Runways 1
Magnetic Variation 5.945° W
Sunrise 2018-05-26 06:27:44 UTC / 2018-05-26 06:27:44 Local
Sunset 2018-05-26 19:18:28 UTC / 2018-05-26 19:18:28 Local
Advertisement - Login to hide

Runways

ID Width Length Bearing (true) Bearing (mag) Surface Threshold Offset Overrun Length
06 98 ft / 30 m 6,565 ft / 2,001 m 49.20° 55.15° Asphalt 0 ft / 0 m 197 ft / 60 m
24 98 ft / 30 m 6,565 ft / 2,001 m 229.20° 235.15° Asphalt 0 ft / 0 m 197 ft / 60 m

Map

Weather


0- 5 10 15 20 25 30 35+ Temperature / ° C

Clouds and Precipitation
Forecast for 2018-05-26 12:00 UTC. Updated 4 hours ago

Ground ~20,000 ft ~40,000 ft Winds

METAR

GOTT 261400Z 22008KT 160V290 CAVOK 38/15 Q1008

TAF

Not found

Frequencies

Tower 118.70 MHz AFIS INFO
Warning: Do not use this data for real-world aviation or navigation. No guarantee of current accuracy is given.